Time;durP1;ratioP1;P1;durP2;ratioP2;P2;SDS_P1;SDS_P2;PMS_P1;PMS_P2;Temp;Humidity;BMP_temperature;BMP_pressure;BME280_temperature;BME280_humidity;BME280_pressure;Samples;Min_cycle;Max_cycle;Signal;HPM_P1;HPM_P2
2023/05/10 00:02:07;;;;;;;3.38;2.38;;;16.50;62.40;;;;;;5033857;28;20355;-72
2023/05/10 00:04:32;;;;;;;3.13;2.08;;;16.60;62.60;;;;;;5032855;28;20088;-73
2023/05/10 00:06:58;;;;;;;8.32;2.17;;;16.50;62.90;;;;;;5032814;28;20034;-73
2023/05/10 00:09:23;;;;;;;7.93;2.40;;;16.60;63.10;;;;;;5032650;28;20447;-74
2023/05/10 00:11:49;;;;;;;6.28;2.00;;;16.50;62.80;;;;;;5031512;28;20045;-74
2023/05/10 00:14:15;;;;;;;4.07;2.22;;;16.50;63.50;;;;;;5033082;28;20029;-74
2023/05/10 00:16:41;;;;;;;4.80;2.42;;;16.50;63.90;;;;;;5032687;28;20473;-74
2023/05/10 00:19:07;;;;;;;5.00;2.25;;;16.50;63.60;;;;;;5032359;28;20506;-74
2023/05/10 00:21:33;;;;;;;3.10;2.38;;;16.50;63.70;;;;;;5032680;28;20033;-72
2023/05/10 00:23:59;;;;;;;5.03;2.60;;;16.50;64.30;;;;;;5015062;28;20349;-73
2023/05/10 00:26:25;;;;;;;5.70;2.13;;;16.40;64.70;;;;;;5036350;28;20018;-73
2023/05/10 00:28:51;;;;;;;12.05;3.13;;;16.40;64.90;;;;;;5045043;28;20092;-73
2023/05/10 00:31:16;;;;;;;7.45;2.53;;;16.20;65.30;;;;;;5046670;28;20041;-73
2023/05/10 00:33:42;;;;;;;6.57;2.50;;;16.30;65.30;;;;;;5048549;28;20037;-72
2023/05/10 00:36:10;;;;;;;5.82;2.50;;;16.40;64.90;;;;;;5029144;28;20093;-72
2023/05/10 00:38:36;;;;;;;7.90;2.70;;;16.40;64.90;;;;;;5029622;28;20116;-73
2023/05/10 00:41:02;;;;;;;5.50;2.15;;;16.40;65.00;;;;;;5047116;28;20021;-74
2023/05/10 00:43:28;;;;;;;6.55;2.88;;;16.40;65.00;;;;;;5037619;28;20049;-74
2023/05/10 00:45:54;;;;;;;4.90;2.58;;;16.30;64.90;;;;;;5032233;28;20140;-74
2023/05/10 00:48:19;;;;;;;5.60;2.28;;;16.20;65.60;;;;;;5032346;28;20026;-72
2023/05/10 00:50:45;;;;;;;9.38;2.63;;;16.20;65.50;;;;;;5031827;28;20026;-71
2023/05/10 00:53:11;;;;;;;5.57;2.42;;;16.20;66.30;;;;;;5032479;28;20017;-74
2023/05/10 00:55:37;;;;;;;4.53;2.40;;;16.30;65.20;;;;;;5031983;28;20455;-74
2023/05/10 00:58:04;;;;;;;6.78;2.50;;;16.20;65.90;;;;;;5031765;28;20033;-73
2023/05/10 01:00:30;;;;;;;8.10;3.33;;;16.30;65.80;;;;;;5031764;28;20029;-73
2023/05/10 01:02:55;;;;;;;6.78;2.72;;;16.10;66.20;;;;;;5031681;28;20091;-74
2023/05/10 01:05:21;;;;;;;4.55;2.70;;;16.10;66.60;;;;;;5031276;28;20444;-74
2023/05/10 01:07:47;;;;;;;10.00;2.25;;;16.00;66.50;;;;;;5032211;28;20463;-75
2023/05/10 01:10:14;;;;;;;4.32;2.55;;;16.20;66.50;;;;;;5031879;28;20048;-73
2023/05/10 01:12:42;;;;;;;6.03;2.20;;;16.20;66.40;;;;;;5031665;28;20118;-73
2023/05/10 01:15:10;;;;;;;7.15;2.22;;;16.10;66.50;;;;;;5031686;28;20040;-74
2023/05/10 01:17:39;;;;;;;7.97;2.45;;;15.80;67.80;;;;;;5031641;28;20025;-73
2023/05/10 01:20:08;;;;;;;5.07;2.42;;;15.90;67.90;;;;;;5032197;28;20021;-74
2023/05/10 01:23:11;;;;;;;3.58;2.20;;;16.00;67.60;;;;;;5013776;28;20136;-74
2023/05/10 01:26:05;;;;;;;5.75;2.50;;;16.00;67.20;;;;;;5032080;28;20149;-73
2023/05/10 01:28:52;;;;;;;6.40;2.25;;;16.00;67.70;;;;;;5032022;28;20033;-74
2023/05/10 01:31:17;;;;;;;6.18;2.60;;;16.00;67.90;;;;;;5032818;28;20041;-74
2023/05/10 01:33:50;;;;;;;7.30;2.92;;;15.90;68.20;;;;;;5018447;28;20395;-74
2023/05/10 01:36:25;;;;;;;7.10;2.70;;;15.80;68.70;;;;;;5026378;28;20029;-73
2023/05/10 01:39:12;;;;;;;8.00;2.90;;;15.80;68.70;;;;;;5017119;28;20034;-74
2023/05/10 01:42:03;;;;;;;4.68;2.72;;;15.80;68.60;;;;;;5028721;28;20491;-73
2023/05/10 01:44:47;;;;;;;7.40;2.50;;;15.70;69.30;;;;;;5012352;28;20100;-74
2023/05/10 01:47:21;;;;;;;4.00;2.35;;;15.60;69.70;;;;;;5013959;28;20018;-73
2023/05/10 01:49:53;;;;;;;5.95;2.75;;;15.60;69.70;;;;;;5031122;28;20042;-73
2023/05/10 01:52:22;;;;;;;5.20;2.80;;;15.70;69.80;;;;;;5038638;28;20030;-74
2023/05/10 01:55:08;;;;;;;6.43;3.08;;;15.80;69.70;;;;;;5030878;28;20101;-74
2023/05/10 01:57:37;;;;;;;5.65;2.60;;;15.80;69.60;;;;;;5030950;28;20365;-73
2023/05/10 02:00:06;;;;;;;7.35;2.60;;;15.80;69.80;;;;;;5030622;28;20116;-74
2023/05/10 02:02:39;;;;;;;6.63;3.00;;;15.80;70.10;;;;;;5030648;28;20037;-73
2023/05/10 02:05:07;;;;;;;5.35;2.63;;;15.60;70.80;;;;;;5013590;28;20033;-73
2023/05/10 02:07:37;;;;;;;6.95;3.20;;;15.60;70.70;;;;;;5030645;28;20140;-73
2023/05/10 02:10:07;;;;;;;4.18;2.70;;;15.60;70.70;;;;;;5030624;28;20050;-73
2023/05/10 02:12:37;;;;;;;5.97;2.92;;;15.60;71.30;;;;;;5013121;28;20040;-73
2023/05/10 02:15:06;;;;;;;10.55;3.22;;;15.50;71.60;;;;;;5013112;28;20038;-74
2023/05/10 02:17:34;;;;;;;10.57;3.15;;;15.50;71.60;;;;;;5030614;28;20068;-72
2023/05/10 02:20:01;;;;;;;5.38;3.20;;;15.50;72.30;;;;;;5031947;28;20029;-74
2023/05/10 02:22:28;;;;;;;8.73;3.00;;;15.40;72.80;;;;;;5030589;28;20110;-72
2023/05/10 02:24:58;;;;;;;5.82;3.28;;;15.30;73.30;;;;;;5012725;28;20029;-72
2023/05/10 02:27:25;;;;;;;10.25;3.13;;;15.30;73.80;;;;;;5013141;28;20029;-74
2023/05/10 02:29:52;;;;;;;6.00;3.50;;;15.30;73.90;;;;;;5030031;28;20038;-72
2023/05/10 02:32:19;;;;;;;6.85;3.33;;;15.30;73.70;;;;;;5030675;28;20037;-73
2023/05/10 02:34:46;;;;;;;5.63;3.15;;;15.30;73.80;;;;;;5029706;28;20476;-73
2023/05/10 02:37:18;;;;;;;8.48;3.65;;;15.30;73.80;;;;;;5012813;28;20064;-73
2023/05/10 02:39:45;;;;;;;5.50;3.35;;;15.30;73.90;;;;;;5030375;28;20124;-73
2023/05/10 02:42:17;;;;;;;5.10;3.07;;;15.30;73.80;;;;;;5030452;28;20127;-73
2023/05/10 02:44:47;;;;;;;6.47;3.28;;;15.30;74.10;;;;;;5030327;28;20045;-71
2023/05/10 02:47:13;;;;;;;10.63;3.83;;;15.30;74.50;;;;;;5013180;28;20044;-73
2023/05/10 02:49:39;;;;;;;11.00;3.28;;;15.20;75.30;;;;;;5034403;28;20029;-74
2023/05/10 02:52:06;;;;;;;5.13;3.28;;;15.20;75.30;;;;;;5030172;28;20033;-74
2023/05/10 02:54:45;;;;;;;6.55;4.13;;;15.20;75.70;;;;;;5030163;28;20489;-71
2023/05/10 02:57:19;;;;;;;9.77;3.53;;;15.20;76.20;;;;;;5012551;28;20033;-74
2023/05/10 02:59:45;;;;;;;6.10;3.92;;;15.40;75.20;;;;;;5029954;28;20029;-72
2023/05/10 03:02:12;;;;;;;7.18;3.97;;;15.50;75.30;;;;;;5030555;28;20041;-72
2023/05/10 03:04:38;;;;;;;11.82;3.90;;;15.40;75.40;;;;;;5029869;28;20087;-71
2023/05/10 03:07:04;;;;;;;7.60;4.07;;;15.40;76.30;;;;;;5029631;28;20034;-73
2023/05/10 03:09:31;;;;;;;9.18;3.63;;;15.40;76.60;;;;;;5029996;28;20029;-71
2023/05/10 03:12:15;;;;;;;6.53;3.60;;;15.40;76.90;;;;;;5012353;28;20116;-72
2023/05/10 03:14:58;;;;;;;13.13;3.65;;;15.30;77.20;;;;;;5031904;28;20104;-72
2023/05/10 03:17:45;;;;;;;8.35;3.90;;;15.40;77.10;;;;;;5030700;28;20041;-72
2023/05/10 03:20:21;;;;;;;8.57;4.20;;;15.20;77.90;;;;;;5030526;28;20024;-73
2023/05/10 03:23:01;;;;;;;10.07;3.72;;;15.30;77.50;;;;;;5010504;28;20105;-72
2023/05/10 03:25:29;;;;;;;9.32;4.32;;;15.30;79.00;;;;;;5027379;28;20026;-74
2023/05/10 03:27:56;;;;;;;6.38;3.78;;;15.30;78.90;;;;;;5016997;28;20218;-73
2023/05/10 03:30:24;;;;;;;9.80;4.07;;;15.30;79.30;;;;;;5000826;28;20034;-71
2023/05/10 03:32:49;;;;;;;6.10;3.67;;;15.30;81.00;;;;;;5026305;28;20112;-72
2023/05/10 03:35:15;;;;;;;9.00;3.97;;;15.30;80.70;;;;;;5022307;28;20251;-72
2023/05/10 03:37:41;;;;;;;6.53;3.40;;;15.40;81.80;;;;;;5044489;28;20049;-73
2023/05/10 03:40:08;;;;;;;8.65;4.50;;;15.50;81.30;;;;;;5014377;28;20551;-73
2023/05/10 03:42:34;;;;;;;6.85;4.68;;;15.50;80.80;;;;;;5038752;28;20088;-72
2023/05/10 03:45:00;;;;;;;9.27;4.40;;;15.40;80.80;;;;;;5027538;28;20417;-71
2023/05/10 03:47:25;;;;;;;7.65;4.35;;;15.40;80.80;;;;;;5015527;28;20072;-73
2023/05/10 03:49:51;;;;;;;11.10;4.15;;;15.40;82.00;;;;;;5036116;28;20052;-76
2023/05/10 03:52:17;;;;;;;9.30;4.50;;;15.40;82.00;;;;;;5018970;28;20057;-74
2023/05/10 03:54:43;;;;;;;12.48;4.70;;;15.40;82.20;;;;;;5025596;28;20040;-75
2023/05/10 03:57:09;;;;;;;6.97;4.25;;;15.30;82.20;;;;;;5027177;28;20034;-75
2023/05/10 03:59:35;;;;;;;9.65;4.78;;;15.30;84.00;;;;;;5015625;28;20040;-75
2023/05/10 04:02:00;;;;;;;8.77;4.63;;;15.30;85.90;;;;;;5033873;28;20108;-74
2023/05/10 04:04:26;;;;;;;8.13;4.50;;;15.30;87.50;;;;;;4998391;28;20364;-72
2023/05/10 04:06:52;;;;;;;7.22;4.95;;;15.30;88.00;;;;;;5025350;28;20354;-72
2023/05/10 04:09:20;;;;;;;9.65;5.32;;;15.40;87.70;;;;;;5025057;28;20040;-73
2023/05/10 04:11:46;;;;;;;9.65;5.80;;;15.40;87.50;;;;;;5016571;28;20037;-72
2023/05/10 04:14:12;;;;;;;7.40;4.60;;;15.40;87.60;;;;;;5033202;28;20025;-73
2023/05/10 04:16:37;;;;;;;10.23;4.90;;;15.40;89.20;;;;;;5014681;28;20030;-73
2023/05/10 04:19:03;;;;;;;13.20;5.15;;;15.30;89.70;;;;;;5026800;28;20475;-73
2023/05/10 04:21:29;;;;;;;11.73;5.75;;;15.20;89.80;;;;;;5023366;28;20460;-73
2023/05/10 04:23:54;;;;;;;7.53;4.93;;;15.30;90.20;;;;;;5000002;28;20025;-72
2023/05/10 04:26:21;;;;;;;11.65;5.57;;;15.30;90.70;;;;;;5033274;28;20025;-72
2023/05/10 04:28:47;;;;;;;11.07;5.15;;;15.30;90.80;;;;;;5032736;28;20463;-71
2023/05/10 04:31:13;;;;;;;9.07;5.05;;;15.30;91.30;;;;;;5032538;28;20290;-72
2023/05/10 04:33:39;;;;;;;9.70;4.85;;;15.30;91.50;;;;;;5014819;28;20080;-71
2023/05/10 04:36:05;;;;;;;11.30;5.35;;;15.30;91.80;;;;;;5032505;28;20427;-73
2023/05/10 04:38:30;;;;;;;7.63;5.22;;;15.10;92.50;;;;;;5032227;28;20037;-73
2023/05/10 04:41:07;;;;;;;10.52;5.57;;;15.30;92.30;;;;;;5033201;28;20407;-74
2023/05/10 04:43:33;;;;;;;8.07;5.20;;;15.10;93.40;;;;;;5036004;28;20041;-73
2023/05/10 04:45:59;;;;;;;14.38;5.15;;;15.20;93.30;;;;;;5040043;28;20033;-72
2023/05/10 04:48:24;;;;;;;9.90;5.22;;;15.10;93.20;;;;;;5043598;28;20443;-74
2023/05/10 04:50:50;;;;;;;10.13;5.90;;;15.10;93.10;;;;;;5043471;28;20021;-73
2023/05/10 04:53:16;;;;;;;10.27;5.75;;;15.10;94.10;;;;;;5039583;28;20025;-74
2023/05/10 04:55:42;;;;;;;8.48;5.50;;;15.20;93.50;;;;;;5029593;28;20034;-74
2023/05/10 04:58:07;;;;;;;7.50;5.10;;;15.30;94.00;;;;;;5041699;28;20189;-73
2023/05/10 05:00:34;;;;;;;9.10;5.13;;;15.20;93.90;;;;;;5032038;28;20049;-74
2023/05/10 05:02:59;;;;;;;8.70;4.90;;;15.00;94.40;;;;;;5014471;28;20368;-72
2023/05/10 05:05:25;;;;;;;11.02;5.70;;;15.00;94.80;;;;;;5032164;28;20025;-70
2023/05/10 05:07:51;;;;;;;12.23;5.43;;;14.90;95.10;;;;;;5032226;28;20109;-73
2023/05/10 05:10:17;;;;;;;7.53;5.43;;;14.90;94.80;;;;;;5033210;28;20386;-72
2023/05/10 05:12:42;;;;;;;10.90;6.15;;;15.00;95.00;;;;;;5031719;28;20033;-72
2023/05/10 05:15:09;;;;;;;11.52;5.75;;;14.90;95.10;;;;;;5031900;28;20026;-72
2023/05/10 05:17:35;;;;;;;8.95;5.47;;;14.90;95.70;;;;;;5031713;28;20105;-72
2023/05/10 05:20:01;;;;;;;9.75;5.82;;;14.90;95.60;;;;;;5032469;28;20101;-73
2023/05/10 05:22:27;;;;;;;8.63;5.65;;;14.90;95.80;;;;;;5032923;28;20095;-73
2023/05/10 05:24:58;;;;;;;10.75;5.32;;;14.90;95.90;;;;;;5032514;28;20041;-72
2023/05/10 05:27:25;;;;;;;9.07;5.75;;;14.80;96.00;;;;;;5031820;28;20079;-74
2023/05/10 05:29:53;;;;;;;8.02;5.43;;;14.80;96.10;;;;;;5010462;28;20041;-73
2023/05/10 05:32:20;;;;;;;11.02;5.80;;;14.80;95.80;;;;;;5011358;28;20034;-73
2023/05/10 05:34:46;;;;;;;11.02;5.93;;;14.80;96.50;;;;;;5011964;28;20065;-71
2023/05/10 05:37:19;;;;;;;11.20;6.18;;;14.90;97.10;;;;;;5010620;28;20026;-74
2023/05/10 05:39:45;;;;;;;10.20;5.95;;;14.90;97.20;;;;;;5011497;28;20472;-72
2023/05/10 05:42:12;;;;;;;13.38;6.50;;;15.00;97.50;;;;;;5012278;28;20084;-73
2023/05/10 05:44:37;;;;;;;11.75;5.90;;;14.80;97.70;;;;;;5003155;28;20030;-73
2023/05/10 05:47:03;;;;;;;11.65;6.03;;;14.80;97.90;;;;;;4992054;28;20322;-72
2023/05/10 05:49:29;;;;;;;13.13;6.00;;;14.90;97.80;;;;;;4992557;28;20133;-71
2023/05/10 05:52:02;;;;;;;17.20;8.40;;;15.00;97.10;;;;;;4993109;28;20089;-72
2023/05/10 05:54:28;;;;;;;16.75;8.65;;;15.00;97.20;;;;;;4996288;28;20031;-75
2023/05/10 05:56:55;;;;;;;9.45;6.07;;;14.90;97.60;;;;;;4993595;28;20044;-74
2023/05/10 05:59:21;;;;;;;11.00;5.72;;;15.00;97.90;;;;;;4992376;28;20030;-74
2023/05/10 06:01:47;;;;;;;10.82;6.63;;;14.90;97.90;;;;;;4992430;28;20034;-73
2023/05/10 06:04:13;;;;;;;8.05;5.03;;;14.90;98.20;;;;;;4992185;28;20085;-74
2023/05/10 06:06:38;;;;;;;9.55;5.43;;;14.90;98.10;;;;;;4994563;28;20027;-72
2023/05/10 06:09:04;;;;;;;12.40;5.28;;;14.90;98.30;;;;;;4990300;28;20023;-73
2023/05/10 06:11:31;;;;;;;8.73;5.15;;;14.90;98.80;;;;;;4991755;28;20053;-72
2023/05/10 06:13:58;;;;;;;7.82;5.20;;;15.00;98.80;;;;;;4992403;28;20025;-73
2023/05/10 06:16:23;;;;;;;9.10;4.45;;;14.90;99.20;;;;;;4991940;28;20419;-74
2023/05/10 06:18:49;;;;;;;10.07;4.40;;;15.00;99.00;;;;;;4991598;28;20472;-72
2023/05/10 06:21:16;;;;;;;7.32;4.90;;;15.00;99.20;;;;;;4992069;28;20041;-74
2023/05/10 06:23:41;;;;;;;8.55;4.65;;;15.10;99.60;;;;;;4990582;28;20050;-74
2023/05/10 06:26:07;;;;;;;5.43;4.13;;;15.20;98.90;;;;;;5002044;28;20284;-80
2023/05/10 06:28:33;;;;;;;13.52;5.53;;;15.30;99.20;;;;;;4998734;28;20137;-73
2023/05/10 06:30:59;;;;;;;8.77;5.15;;;15.30;99.10;;;;;;4996830;28;20065;-75
2023/05/10 06:33:25;;;;;;;13.20;5.47;;;15.20;99.90;;;;;;4997014;28;20022;-71
2023/05/10 06:35:51;;;;;;;11.35;5.35;;;15.30;99.90;;;;;;4990019;28;20034;-72
2023/05/10 06:38:17;;;;;;;8.65;5.30;;;15.20;99.90;;;;;;4991917;28;20050;-70
2023/05/10 06:40:43;;;;;;;9.40;5.03;;;15.30;99.90;;;;;;4989988;28;20574;-70
2023/05/10 06:43:09;;;;;;;11.80;5.65;;;15.20;99.90;;;;;;4991710;28;20030;-70
2023/05/10 06:45:35;;;;;;;9.13;5.13;;;15.20;99.90;;;;;;4996996;28;20069;-74
2023/05/10 06:48:01;;;;;;;12.55;5.20;;;15.20;99.90;;;;;;5011976;28;20154;-75
2023/05/10 06:50:26;;;;;;;11.73;6.63;;;15.20;99.90;;;;;;5011938;28;20048;-73
2023/05/10 06:52:52;;;;;;;12.98;8.02;;;15.20;99.90;;;;;;5012228;28;20022;-72
2023/05/10 06:55:18;;;;;;;11.00;6.70;;;15.20;99.90;;;;;;5011489;28;20386;-72
2023/05/10 06:57:44;;;;;;;10.07;5.20;;;15.20;99.90;;;;;;5011536;28;20038;-72
2023/05/10 07:00:10;;;;;;;6.70;5.05;;;15.20;99.90;;;;;;5011040;28;20510;-73
2023/05/10 07:02:35;;;;;;;10.93;6.07;;;15.20;99.90;;;;;;5011314;28;20045;-73
2023/05/10 07:05:02;;;;;;;8.63;5.50;;;15.30;99.90;;;;;;5012223;28;20040;-72
2023/05/10 07:07:28;;;;;;;14.05;7.35;;;15.20;99.90;;;;;;5012246;28;20045;-73
2023/05/10 07:13:16;;;;;;;7.13;5.40;;;15.30;99.90;;;;;;5009375;28;20041;-72
2023/05/10 07:15:42;;;;;;;9.60;5.65;;;15.30;99.90;;;;;;4991938;28;20034;-72
2023/05/10 07:18:07;;;;;;;14.73;9.32;;;15.30;99.90;;;;;;4991916;28;20030;-74
2023/05/10 07:20:33;;;;;;;10.85;7.13;;;15.30;99.90;;;;;;4994219;28;20030;-71
2023/05/10 07:22:59;;;;;;;12.93;6.00;;;15.40;99.90;;;;;;4996461;28;20109;-72
2023/05/10 07:25:24;;;;;;;9.15;5.40;;;15.30;99.90;;;;;;5010842;28;20026;-72
2023/05/10 07:27:50;;;;;;;9.50;5.30;;;15.30;99.90;;;;;;4995467;28;20117;-72
2023/05/10 07:30:16;;;;;;;10.63;5.43;;;15.40;99.90;;;;;;4993989;28;20049;-73
2023/05/10 07:32:42;;;;;;;12.15;7.95;;;15.50;99.90;;;;;;4997736;28;20015;-71
2023/05/10 07:35:08;;;;;;;9.48;4.93;;;15.50;99.90;;;;;;4996160;28;20457;-71
2023/05/10 07:37:35;;;;;;;10.32;5.88;;;15.50;99.90;;;;;;4996418;28;20046;-73
2023/05/10 07:40:01;;;;;;;7.20;5.10;;;15.50;99.90;;;;;;4996192;28;20042;-72
2023/05/10 07:42:27;;;;;;;9.85;4.97;;;15.50;99.90;;;;;;4996197;28;20026;-73
2023/05/10 07:44:53;;;;;;;11.57;6.28;;;15.40;99.90;;;;;;4994245;28;20081;-75
2023/05/10 07:47:19;;;;;;;11.77;7.10;;;15.50;99.90;;;;;;4995750;28;20432;-74
2023/05/10 07:49:44;;;;;;;6.40;4.85;;;15.50;99.90;;;;;;4994393;28;20038;-71
2023/05/10 07:52:11;;;;;;;5.95;4.20;;;15.50;99.90;;;;;;4995450;28;20042;-73
2023/05/10 07:54:37;;;;;;;10.68;5.55;;;15.40;99.90;;;;;;4995268;28;20042;-74
2023/05/10 07:57:03;;;;;;;10.02;5.03;;;15.40;99.90;;;;;;4995332;28;20167;-73
2023/05/10 07:59:29;;;;;;;7.45;4.97;;;15.50;99.90;;;;;;4994492;28;20030;-74
2023/05/10 08:01:55;;;;;;;7.07;4.45;;;15.40;99.90;;;;;;4995667;28;20033;-71
2023/05/10 08:04:22;;;;;;;8.10;4.72;;;15.50;99.90;;;;;;4995659;28;20030;-73
2023/05/10 08:06:47;;;;;;;9.18;4.07;;;15.40;99.90;;;;;;4996356;28;20034;-71
2023/05/10 08:09:13;;;;;;;7.28;4.68;;;15.50;99.90;;;;;;4996657;28;20068;-71
2023/05/10 08:11:39;;;;;;;9.02;4.68;;;15.50;99.90;;;;;;4998420;28;20121;-69
2023/05/10 08:14:04;;;;;;;5.93;3.83;;;15.60;99.90;;;;;;4999990;28;20100;-71
2023/05/10 08:16:30;;;;;;;9.18;3.83;;;15.60;99.90;;;;;;5015451;28;20045;-73
2023/05/10 08:18:56;;;;;;;6.00;3.33;;;15.60;99.90;;;;;;5013357;28;20508;-71
2023/05/10 08:21:21;;;;;;;27.13;3.97;;;15.70;99.90;;;;;;4994601;28;20022;-72
2023/05/10 08:23:47;;;;;;;5.88;3.33;;;15.70;99.90;;;;;;4993361;28;20034;-70
2023/05/10 08:26:13;;;;;;;5.35;3.03;;;15.70;99.90;;;;;;4995132;28;20037;-71
2023/05/10 08:28:38;;;;;;;6.95;1.95;;;15.80;99.90;;;;;;4995303;28;20037;-71
2023/05/10 08:31:05;;;;;;;3.50;2.55;;;15.60;99.90;;;;;;5008921;28;20088;-71
2023/05/10 08:33:30;;;;;;;2.58;2.10;;;15.50;99.90;;;;;;5013766;28;20327;-72
2023/05/10 08:35:56;;;;;;;2.75;1.90;;;15.60;99.90;;;;;;5012761;28;20456;-72
2023/05/10 08:38:22;;;;;;;3.83;1.85;;;15.60;99.90;;;;;;5014302;28;20433;-71
2023/05/10 08:40:50;;;;;;;2.25;1.63;;;15.60;99.90;;;;;;5013859;28;20037;-70
2023/05/10 08:43:16;;;;;;;5.72;2.47;;;15.80;99.90;;;;;;5013949;28;20484;-72
2023/05/10 08:45:46;;;;;;;2.90;1.67;;;15.90;99.90;;;;;;5013782;28;20061;-73
2023/05/10 08:48:12;;;;;;;2.50;1.75;;;15.90;99.90;;;;;;5013758;28;20038;-72
2023/05/10 08:50:39;;;;;;;4.53;1.65;;;16.10;99.90;;;;;;5013635;28;20101;-71
2023/05/10 08:53:13;;;;;;;2.38;1.98;;;16.20;99.90;;;;;;5014517;28;20101;-72
2023/05/10 08:55:40;;;;;;;6.32;2.15;;;16.10;99.90;;;;;;4997273;28;20155;-72
2023/05/10 08:58:06;;;;;;;3.03;2.20;;;16.00;99.90;;;;;;5013585;28;20087;-71
2023/05/10 09:00:33;;;;;;;4.18;2.47;;;16.00;99.90;;;;;;5013652;28;20057;-71
2023/05/10 09:02:59;;;;;;;2.78;2.03;;;16.10;99.90;;;;;;5013458;28;20041;-70
2023/05/10 09:05:25;;;;;;;3.40;2.13;;;16.10;99.90;;;;;;5013427;28;20036;-70
2023/05/10 09:07:51;;;;;;;2.22;1.90;;;16.10;99.90;;;;;;5012806;28;20030;-71
2023/05/10 09:10:18;;;;;;;2.42;1.80;;;15.80;99.90;;;;;;5013525;28;20026;-69
2023/05/10 09:12:45;;;;;;;1.73;1.58;;;16.00;99.90;;;;;;5013071;28;20133;-71
2023/05/10 09:15:11;;;;;;;3.67;1.90;;;15.90;99.90;;;;;;4995868;28;20040;-73
2023/05/10 09:17:40;;;;;;;2.95;1.70;;;15.80;99.90;;;;;;5013145;28;20033;-72
2023/05/10 09:20:06;;;;;;;;;;;15.80;99.90;;;;;;4996806;28;20116;-72
2023/05/10 09:22:31;;;;;;;2.83;2.17;;;16.00;99.90;;;;;;5013625;28;20060;-74
2023/05/10 09:25:24;;;;;;;3.15;2.40;;;15.90;99.90;;;;;;5013590;28;20179;-74
2023/05/10 09:27:50;;;;;;;4.30;2.40;;;15.90;99.90;;;;;;5008380;28;20030;-71
2023/05/10 09:30:27;;;;;;;3.05;2.30;;;15.80;99.90;;;;;;5012919;28;20042;-70
2023/05/10 09:32:53;;;;;;;5.10;3.53;;;16.00;99.90;;;;;;5013574;28;20034;-73
2023/05/10 09:35:22;;;;;;;10.63;7.25;;;15.80;99.90;;;;;;5014419;28;20076;-74
2023/05/10 09:37:50;;;;;;;4.50;3.10;;;15.90;99.90;;;;;;5012487;28;20116;-73
2023/05/10 09:40:21;;;;;;;3.83;2.78;;;16.10;99.90;;;;;;5013198;28;20096;-70
2023/05/10 09:43:01;;;;;;;3.42;2.38;;;16.20;99.90;;;;;;5011510;28;20080;-72
2023/05/10 09:45:32;;;;;;;9.88;3.45;;;16.20;99.90;;;;;;5012569;28;20030;-71
2023/05/10 09:47:58;;;;;;;4.28;3.03;;;16.30;99.90;;;;;;5012012;28;20176;-74
2023/05/10 09:50:25;;;;;;;5.10;3.08;;;16.30;99.90;;;;;;5013369;28;20096;-71
2023/05/10 09:53:02;;;;;;;3.97;2.60;;;16.40;99.90;;;;;;5013213;28;20038;-72
2023/05/10 09:55:40;;;;;;;4.07;2.47;;;16.60;99.90;;;;;;5012263;28;20030;-72
2023/05/10 09:58:12;;;;;;;;;;;16.50;99.90;;;;;;5013388;28;20034;-72
2023/05/10 10:00:40;;;;;;;5.95;2.60;;;16.50;99.90;;;;;;5012983;28;19924;-73
2023/05/10 10:03:06;;;;;;;4.10;2.67;;;16.50;99.90;;;;;;5013159;28;20029;-70
2023/05/10 10:05:33;;;;;;;3.08;2.20;;;16.60;99.90;;;;;;4995302;28;20034;-72
2023/05/10 10:08:00;;;;;;;3.85;2.60;;;16.70;99.90;;;;;;5012720;28;20080;-71
2023/05/10 10:10:27;;;;;;;5.28;3.00;;;16.90;99.90;;;;;;5012826;28;20026;-74
2023/05/10 10:12:54;;;;;;;3.80;2.20;;;16.90;99.90;;;;;;5013095;28;20026;-72
2023/05/10 10:15:23;;;;;;;6.57;4.28;;;16.70;99.90;;;;;;5011461;28;20263;-73
2023/05/10 10:17:50;;;;;;;2.78;2.30;;;16.90;99.90;;;;;;4995656;28;20041;-72
2023/05/10 10:20:17;;;;;;;6.22;2.55;;;16.90;99.90;;;;;;5012901;28;20376;-71
2023/05/10 10:22:46;;;;;;;5.43;3.20;;;17.00;99.90;;;;;;5012599;28;20037;-71
2023/05/10 10:25:13;;;;;;;4.13;3.00;;;17.10;99.90;;;;;;5011985;28;20088;-73
2023/05/10 10:28:10;;;;;;;4.18;3.13;;;17.00;99.90;;;;;;5011408;28;20511;-73
2023/05/10 10:30:36;;;;;;;;;;;17.00;99.90;;;;;;4981022;28;20464;-72
2023/05/10 10:33:36;;;;;;;4.38;3.20;;;17.00;99.90;;;;;;4996678;28;19920;-73
2023/05/10 10:36:03;;;;;;;4.22;2.85;;;17.10;99.90;;;;;;5012099;28;20030;-72
2023/05/10 10:38:47;;;;;;;6.60;3.72;;;17.20;99.90;;;;;;5012134;28;20029;-75
2023/05/10 10:41:30;;;;;;;5.03;2.90;;;17.30;99.90;;;;;;5011149;28;20413;-73
2023/05/10 10:44:38;;;;;;;5.50;3.42;;;17.30;99.90;;;;;;5012999;28;20030;-74
2023/05/10 10:47:11;;;;;;;6.95;3.05;;;17.30;99.90;;;;;;5013151;28;20129;-75
2023/05/10 10:49:47;;;;;;;3.05;2.47;;;17.50;99.90;;;;;;5013173;28;20058;-75
2023/05/10 10:52:28;;;;;;;4.10;2.92;;;17.50;99.90;;;;;;5012162;28;20096;-73
2023/05/10 10:55:03;;;;;;;3.90;2.72;;;17.60;99.90;;;;;;5011800;28;20120;-76
2023/05/10 10:57:46;;;;;;;5.53;2.70;;;17.70;99.90;;;;;;5011320;28;20045;-76
2023/05/10 11:00:26;;;;;;;3.97;2.60;;;17.90;99.90;;;;;;5011576;28;20049;-75
2023/05/10 11:03:18;;;;;;;5.30;2.58;;;17.70;99.90;;;;;;5011490;28;20034;-74
2023/05/10 11:05:52;;;;;;;3.80;2.42;;;17.60;99.90;;;;;;5010307;28;20359;-75
2023/05/10 11:08:18;;;;;;;11.43;6.72;;;17.70;99.90;;;;;;5012444;28;20022;-74
2023/05/10 11:10:58;;;;;;;8.68;4.88;;;17.90;99.90;;;;;;5011582;28;20033;-73
2023/05/10 11:13:35;;;;;;;4.30;3.20;;;18.00;99.90;;;;;;5013259;28;20030;-77
2023/05/10 11:16:13;;;;;;;5.43;3.60;;;17.70;99.90;;;;;;5012828;28;20030;-73
2023/05/10 11:18:40;;;;;;;4.90;2.92;;;17.80;99.90;;;;;;5011059;28;20455;-74
2023/05/10 11:21:10;;;;;;;5.43;3.17;;;17.90;99.90;;;;;;5011615;28;20022;-76
2023/05/10 11:23:47;;;;;;;5.07;3.10;;;17.90;99.90;;;;;;5011669;28;20044;-75
2023/05/10 11:26:13;;;;;;;3.13;2.50;;;18.10;99.90;;;;;;5012004;28;20045;-75
2023/05/10 11:28:47;;;;;;;6.95;3.30;;;18.30;99.90;;;;;;5011550;28;20412;-75
2023/05/10 11:31:19;;;;;;;5.45;3.05;;;18.10;99.90;;;;;;5010222;28;20046;-76
2023/05/10 11:33:53;;;;;;;4.25;2.50;;;18.30;99.90;;;;;;5011332;28;20368;-75
2023/05/10 11:36:30;;;;;;;5.75;2.58;;;18.40;99.90;;;;;;5013000;28;20030;-74
2023/05/10 11:38:57;;;;;;;7.95;3.33;;;18.50;99.90;;;;;;5012114;28;20030;-75
2023/05/10 11:41:23;;;;;;;5.60;3.55;;;18.70;99.90;;;;;;5015186;28;20026;-74
2023/05/10 11:43:51;;;;;;;11.90;4.20;;;18.80;99.70;;;;;;5019348;28;20508;-72
2023/05/10 11:46:20;;;;;;;5.35;3.15;;;18.90;99.40;;;;;;5018411;28;20030;-73
2023/05/10 11:48:49;;;;;;;9.63;4.43;;;18.70;98.70;;;;;;5007934;28;20108;-72
2023/05/10 11:51:14;;;;;;;5.78;3.60;;;18.90;98.90;;;;;;4998622;28;20045;-73
2023/05/10 11:53:40;;;;;;;6.05;3.60;;;19.20;98.90;;;;;;4992354;28;20406;-73
2023/05/10 11:56:08;;;;;;;4.18;2.75;;;19.50;98.90;;;;;;4994658;28;20014;-73
2023/05/10 11:58:35;;;;;;;3.95;2.63;;;19.40;97.90;;;;;;4997049;28;20034;-75
2023/05/10 12:01:02;;;;;;;5.20;3.03;;;19.20;97.80;;;;;;4991543;28;20027;-73
2023/05/10 12:03:28;;;;;;;6.15;3.47;;;19.50;97.80;;;;;;4991745;28;20030;-75
2023/05/10 12:05:58;;;;;;;6.63;3.25;;;19.60;97.30;;;;;;4990861;28;20084;-74
2023/05/10 12:08:25;;;;;;;4.88;3.17;;;19.70;97.00;;;;;;4996887;28;20046;-73
2023/05/10 12:10:52;;;;;;;8.73;3.72;;;19.70;97.20;;;;;;5001517;28;20027;-75
2023/05/10 12:13:20;;;;;;;4.72;3.25;;;19.80;97.00;;;;;;4998367;28;20034;-73
2023/05/10 12:15:46;;;;;;;7.40;3.38;;;20.00;96.50;;;;;;4995852;28;20034;-71
2023/05/10 12:18:13;;;;;;;5.55;3.50;;;19.90;96.00;;;;;;4994493;28;20034;-71
2023/05/10 12:20:39;;;;;;;9.27;4.18;;;19.90;96.40;;;;;;4994500;28;20027;-72
2023/05/10 12:23:07;;;;;;;4.78;3.35;;;20.00;96.30;;;;;;4995756;28;20018;-73
2023/05/10 12:25:35;;;;;;;6.50;3.53;;;20.00;96.20;;;;;;4994919;28;20058;-72
2023/05/10 12:28:04;;;;;;;5.22;4.03;;;20.20;95.90;;;;;;4994467;28;20109;-74
2023/05/10 12:30:34;;;;;;;5.60;3.70;;;20.20;96.10;;;;;;4995014;28;20288;-74
2023/05/10 12:33:03;;;;;;;7.35;3.75;;;20.30;95.70;;;;;;4994174;28;20050;-73
2023/05/10 12:35:32;;;;;;;7.07;4.00;;;20.20;95.60;;;;;;4994110;28;20031;-70
2023/05/10 12:37:58;;;;;;;8.95;4.20;;;20.10;95.70;;;;;;4994779;28;20053;-72
2023/05/10 12:40:24;;;;;;;6.43;3.40;;;19.90;95.70;;;;;;4977016;28;20030;-73
2023/05/10 12:42:50;;;;;;;5.47;3.95;;;19.80;95.80;;;;;;4994011;28;20069;-73
2023/05/10 12:45:17;;;;;;;6.65;3.10;;;19.70;95.90;;;;;;4994310;28;20120;-73
2023/05/10 12:47:43;;;;;;;7.90;3.80;;;19.80;96.00;;;;;;4994315;28;20037;-72
2023/05/10 12:50:09;;;;;;;5.13;3.53;;;20.00;95.90;;;;;;4994971;28;20387;-73
2023/05/10 12:52:35;;;;;;;7.22;3.75;;;20.00;95.80;;;;;;4993975;28;20058;-73
2023/05/10 12:55:01;;;;;;;7.40;3.90;;;20.10;95.60;;;;;;4994013;28;20041;-73
2023/05/10 12:57:27;;;;;;;6.75;3.45;;;20.20;95.60;;;;;;5002444;28;20451;-74